createdAt,value
2023-03-16T00:00:57.381Z,98030.80
2023-03-16T00:04:46.327Z,98032.49
2023-03-16T00:08:35.588Z,98033.08
2023-03-16T00:12:24.727Z,98036.87
2023-03-16T00:24:16.658Z,98046.44
2023-03-16T00:27:56.716Z,98052.63
2023-03-16T00:31:46.066Z,98053.53
2023-03-16T00:35:35.117Z,98053.91
2023-03-16T00:39:24.039Z,98050.98
2023-03-16T00:43:12.839Z,98051.95
2023-03-16T00:47:01.778Z,98056.64
2023-03-16T00:50:51.092Z,98058.35
2023-03-16T01:14:04.403Z,98061.28
2023-03-16T01:17:53.403Z,98071.00
2023-03-16T01:21:42.344Z,98075.27
2023-03-16T01:25:31.713Z,98077.70
2023-03-16T01:29:21.963Z,98079.47
2023-03-16T01:33:12.108Z,98079.13
2023-03-16T01:37:01.404Z,98073.25
2023-03-16T01:40:50.992Z,98075.54
2023-03-16T01:44:40.926Z,98074.25
2023-03-16T01:49:29.756Z,98075.73
2023-03-16T01:53:17.371Z,98084.31
2023-03-16T01:57:05.200Z,98082.34
2023-03-16T02:00:55.603Z,98087.55
2023-03-16T02:04:42.591Z,98084.71
2023-03-16T02:08:30.255Z,98082.06
2023-03-16T02:12:18.280Z,98083.75
2023-03-16T02:16:08.051Z,98087.08
2023-03-16T02:19:47.988Z,98089.64
2023-03-16T02:31:54.930Z,98108.27
2023-03-16T02:35:44.214Z,98113.14
2023-03-16T02:39:38.260Z,98117.70
2023-03-16T02:43:27.497Z,98125.77
2023-03-16T03:02:25.110Z,98153.60
2023-03-16T03:06:14.904Z,98154.86
2023-03-16T03:10:03.863Z,98159.42
2023-03-16T03:13:45.901Z,98167.39
2023-03-16T03:32:29.162Z,98180.90
2023-03-16T03:36:18.262Z,98184.04
2023-03-16T03:40:07.723Z,98193.52
2023-03-16T03:44:19.793Z,98203.27
2023-03-16T03:48:08.981Z,98202.29
2023-03-16T03:51:58.059Z,98210.34
2023-03-16T03:59:44.411Z,98205.91
2023-03-16T04:03:34.411Z,98213.98
2023-03-16T04:07:14.475Z,98215.58
2023-03-16T04:11:02.565Z,98215.30
2023-03-16T04:23:12.661Z,98223.39
2023-03-16T04:27:03.605Z,98226.86
2023-03-16T04:30:44.311Z,98231.88
2023-03-16T04:34:38.420Z,98236.05
2023-03-16T04:38:22.653Z,98235.98
2023-03-16T04:49:17.227Z,98234.77
2023-03-16T04:52:37.518Z,98238.80
2023-03-16T04:56:16.237Z,98238.81
2023-03-16T04:58:58.617Z,98243.21
2023-03-16T05:01:52.440Z,98246.98
2023-03-16T05:04:30.421Z,98247.21
2023-03-16T05:07:49.115Z,98251.92
2023-03-16T05:11:32.830Z,98256.16
2023-03-16T05:14:32.951Z,98256.46
2023-03-16T05:17:45.028Z,98257.02
2023-03-16T05:20:28.017Z,98264.38
2023-03-16T05:23:44.077Z,98267.70
2023-03-16T05:26:53.409Z,98264.77
2023-03-16T05:30:02.783Z,98263.94
2023-03-16T05:33:34.706Z,98269.13
2023-03-16T05:36:47.845Z,98269.41
2023-03-16T05:40:29.822Z,98274.16
2023-03-16T05:44:11.992Z,98271.58
2023-03-16T05:48:06.873Z,98282.56
2023-03-16T05:50:43.854Z,98288.28
2023-03-16T05:53:24.858Z,98289.54
2023-03-16T05:56:53.829Z,98287.90
2023-03-16T06:00:28.087Z,98290.42
2023-03-16T06:03:42.425Z,98297.70
2023-03-16T06:06:19.843Z,98302.35
2023-03-16T06:09:09.311Z,98308.10
2023-03-16T06:12:44.033Z,98310.05
2023-03-16T06:16:14.265Z,98319.73
2023-03-16T06:20:04.389Z,98321.38
2023-03-16T06:23:46.214Z,98321.23
2023-03-16T06:27:32.755Z,98323.67
2023-03-16T06:38:30.781Z,98329.77
2023-03-16T06:42:05.369Z,98333.44
2023-03-16T06:45:33.289Z,98335.21
2023-03-16T06:49:11.008Z,98335.02
2023-03-16T07:00:15.617Z,98347.94
2023-03-16T07:04:04.831Z,98354.02
2023-03-16T07:07:42.549Z,98354.89
2023-03-16T07:11:26.495Z,98357.73
2023-03-16T07:15:23.502Z,98358.27
2023-03-16T07:18:57.093Z,98368.67
2023-03-16T07:26:34.612Z,98375.95
2023-03-16T07:31:03.086Z,98378.61
2023-03-16T07:34:53.058Z,98378.38
2023-03-16T07:38:43.712Z,98379.91
2023-03-16T07:42:33.102Z,98384.95
2023-03-16T07:46:09.361Z,98387.99
2023-03-16T07:49:58.387Z,98387.58
2023-03-16T07:53:49.310Z,98389.44
2023-03-16T07:57:21.388Z,98389.86
2023-03-16T08:01:10.654Z,98395.23
2023-03-16T08:04:30.606Z,98399.88
2023-03-16T08:07:46.113Z,98397.58
2023-03-16T08:11:36.498Z,98397.11
2023-03-16T08:15:06.852Z,98400.88
2023-03-16T08:33:33.554Z,98408.02
2023-03-16T09:03:54.205Z,98422.10
2023-03-16T09:07:43.369Z,98428.34
2023-03-16T09:11:32.603Z,98433.92
2023-03-16T09:15:22.446Z,98436.66
2023-03-16T09:19:04.725Z,98441.15
2023-03-16T09:22:43.204Z,98439.23
2023-03-16T09:26:18.742Z,98445.41
2023-03-16T09:30:03.207Z,98446.86
2023-03-16T09:33:35.658Z,98451.48
2023-03-16T09:37:09.523Z,98451.89
2023-03-16T09:40:57.002Z,98448.20
2023-03-16T09:44:57.697Z,98449.56
2023-03-16T09:57:08.714Z,98457.65
2023-03-16T10:00:58.495Z,98462.13
2023-03-16T10:04:47.265Z,98461.32
2023-03-16T10:08:46.803Z,98457.68
2023-03-16T10:16:38.074Z,98457.42
2023-03-16T10:20:12.983Z,98452.21
2023-03-16T10:24:01.921Z,98455.58
2023-03-16T10:27:16.060Z,98453.35
2023-03-16T10:39:17.682Z,98455.81
2023-03-16T10:43:02.060Z,98458.24
2023-03-16T10:46:37.366Z,98455.15
2023-03-16T10:50:27.636Z,98460.77
2023-03-16T10:54:21.154Z,98460.28
2023-03-16T11:10:40.509Z,98458.05
2023-03-16T11:14:31.498Z,98451.84
2023-03-16T11:18:32.070Z,98450.11
2023-03-16T11:22:18.650Z,98447.34
2023-03-16T11:26:09.021Z,98446.35
2023-03-16T11:29:59.305Z,98440.27
2023-03-16T11:33:48.307Z,98444.13
2023-03-16T11:37:38.653Z,98447.86
2023-03-16T11:49:36.732Z,98441.41
2023-03-16T11:53:29.686Z,98442.86
2023-03-16T11:57:35.955Z,98434.52
2023-03-16T12:01:45.134Z,98437.40
2023-03-16T12:05:52.039Z,98443.04
2023-03-16T12:18:09.066Z,98429.81
2023-03-16T12:21:58.480Z,98424.74
2023-03-16T12:34:09.031Z,98418.18
2023-03-16T12:38:20.678Z,98411.39
2023-03-16T12:42:12.661Z,98414.41
2023-03-16T12:53:51.783Z,98415.89
2023-03-16T12:57:46.541Z,98421.05
2023-03-16T13:01:37.114Z,98422.80
2023-03-16T13:05:42.702Z,98429.31
2023-03-16T13:09:43.353Z,98430.77
2023-03-16T13:21:27.641Z,98439.02
2023-03-16T13:25:23.299Z,98437.91
2023-03-16T13:29:02.805Z,98428.40
2023-03-16T13:36:18.009Z,98427.67
2023-03-16T13:40:19.806Z,98432.70
2023-03-16T13:44:24.265Z,98431.34
2023-03-16T13:48:24.323Z,98432.39
2023-03-16T14:04:17.700Z,98417.73
2023-03-16T14:08:01.073Z,98419.28
2023-03-16T14:11:50.431Z,98417.18
2023-03-16T14:15:40.321Z,98418.68
2023-03-16T14:31:32.282Z,98418.89
2023-03-16T14:35:20.840Z,98414.42
2023-03-16T14:39:10.997Z,98421.63
2023-03-16T14:43:02.224Z,98420.86
2023-03-16T14:46:43.462Z,98418.78
2023-03-16T14:49:56.618Z,98420.80
2023-03-16T15:05:07.429Z,98421.92
2023-03-16T15:08:01.622Z,98422.87
2023-03-16T15:11:19.605Z,98421.33
2023-03-16T15:15:10.099Z,98424.68
2023-03-16T15:18:38.390Z,98423.79
2023-03-16T15:22:27.566Z,98427.69
2023-03-16T15:26:05.959Z,98430.22
2023-03-16T15:29:00.882Z,98428.14
2023-03-16T15:31:57.084Z,98427.24
2023-03-16T15:35:29.509Z,98429.27
2023-03-16T15:39:18.732Z,98425.37
2023-03-16T15:46:24.290Z,98421.60
2023-03-16T16:07:37.834Z,98427.79
2023-03-16T16:11:15.178Z,98433.88
2023-03-16T16:14:54.262Z,98439.88
2023-03-16T16:18:23.813Z,98440.70
2023-03-16T16:21:54.093Z,98443.52
2023-03-16T16:25:31.232Z,98444.66
2023-03-16T16:29:14.038Z,98444.34
2023-03-16T16:32:34.632Z,98443.08
2023-03-16T16:36:07.038Z,98449.55
2023-03-16T16:47:35.382Z,98462.10
2023-03-16T16:51:24.929Z,98462.60
2023-03-16T16:55:12.692Z,98469.50
2023-03-16T16:58:46.456Z,98471.56
2023-03-16T17:02:17.737Z,98472.84
2023-03-16T17:06:07.452Z,98469.77
2023-03-16T17:09:38.076Z,98469.05
2023-03-16T17:25:15.613Z,98471.63
2023-03-16T17:28:44.661Z,98474.80
2023-03-16T17:32:33.661Z,98479.38
2023-03-16T17:36:23.167Z,98480.06
2023-03-16T17:40:15.405Z,98481.17
2023-03-16T17:44:06.761Z,98481.48
2023-03-16T17:47:56.889Z,98482.75
2023-03-16T17:51:47.360Z,98484.48
2023-03-16T17:55:37.676Z,98478.65
2023-03-16T17:59:27.318Z,98480.77
2023-03-16T18:03:15.293Z,98478.29
2023-03-16T18:06:25.861Z,98477.66
2023-03-16T18:09:36.161Z,98479.60
2023-03-16T18:13:24.432Z,98486.88
2023-03-16T18:17:16.598Z,98498.27
2023-03-16T18:20:05.872Z,98502.63
2023-03-16T18:23:28.726Z,98503.07
2023-03-16T18:26:44.543Z,98501.84
2023-03-16T18:29:47.245Z,98506.59
2023-03-16T18:33:12.934Z,98510.71
2023-03-16T18:36:58.360Z,98510.73
2023-03-16T18:40:48.345Z,98511.91
2023-03-16T18:44:01.141Z,98512.27
2023-03-16T18:47:36.900Z,98509.39
2023-03-16T18:51:24.967Z,98514.09
2023-03-16T18:54:47.282Z,98527.16
2023-03-16T18:58:19.048Z,98522.98
2023-03-16T19:01:48.564Z,98532.48
2023-03-16T19:05:20.206Z,98536.90
2023-03-16T19:08:24.388Z,98538.64
2023-03-16T19:11:35.865Z,98539.54
2023-03-16T19:15:05.035Z,98539.39
2023-03-16T19:17:33.630Z,98535.98
2023-03-16T19:20:05.063Z,98536.64
2023-03-16T19:22:38.408Z,98534.31
2023-03-16T19:25:34.251Z,98531.09
2023-03-16T19:28:26.915Z,98532.43
2023-03-16T19:31:30.938Z,98535.21
2023-03-16T19:34:35.229Z,98536.77
2023-03-16T19:37:40.878Z,98540.25
2023-03-16T19:40:58.684Z,98537.59
2023-03-16T19:44:22.480Z,98545.19
2023-03-16T19:48:15.158Z,98546.85
2023-03-16T19:51:33.148Z,98548.52
2023-03-16T19:58:48.330Z,98547.30
2023-03-16T20:33:57.006Z,98552.39
2023-03-16T20:36:39.388Z,98551.52
2023-03-16T20:39:38.580Z,98552.27
2023-03-16T20:42:49.912Z,98551.73
2023-03-16T20:45:41.778Z,98547.84
2023-03-16T20:48:19.651Z,98550.38
2023-03-16T20:51:50.446Z,98548.18
2023-03-16T20:54:21.554Z,98539.97
2023-03-16T20:57:35.209Z,98542.73
2023-03-16T21:00:51.543Z,98546.57
2023-03-16T21:03:47.445Z,98547.80
2023-03-16T21:06:59.147Z,98546.66
2023-03-16T21:10:15.231Z,98548.56
2023-03-16T21:13:25.175Z,98548.45
2023-03-16T21:16:03.288Z,98549.17
2023-03-16T21:18:50.707Z,98546.83
2023-03-16T21:21:39.728Z,98548.54
2023-03-16T21:24:28.378Z,98551.42
2023-03-16T21:28:04.472Z,98552.48
2023-03-16T21:31:50.249Z,98547.88
2023-03-16T21:35:01.656Z,98538.05
2023-03-16T21:38:30.330Z,98546.39
2023-03-16T21:41:29.207Z,98539.00
2023-03-16T21:44:00.277Z,98538.53
2023-03-16T21:47:28.987Z,98538.33
2023-03-16T21:51:14.266Z,98538.68
2023-03-16T22:10:14.042Z,98543.98
2023-03-16T22:14:21.412Z,98543.27
2023-03-16T22:18:16.413Z,98540.32
2023-03-16T22:22:05.891Z,98547.94
2023-03-16T22:44:32.567Z,98527.33
2023-03-16T22:48:24.230Z,98520.34
2023-03-16T22:52:13.803Z,98518.52
2023-03-16T22:56:04.712Z,98513.38
2023-03-16T22:59:42.819Z,98506.23
2023-03-16T23:03:25.898Z,98508.45
2023-03-16T23:07:06.113Z,98503.51
2023-03-16T23:10:56.125Z,98495.02
2023-03-16T23:14:46.338Z,98488.90
2023-03-16T23:18:37.210Z,98486.47
2023-03-16T23:22:27.100Z,98476.70
